Time;durP1;ratioP1;P1;durP2;ratioP2;P2;SDS_P1;SDS_P2;PMS_P1;PMS_P2;Temp;Humidity;BMP_temperature;BMP_pressure;BME280_temperature;BME280_humidity;BME280_pressure;Samples;Min_cycle;Max_cycle;Signal;HPM_P1;HPM_P2
2023/01/22 00:00:02;;;;;;;45.27;23.30;;;-2.20;99.90;;;;;;4946327;28;20035;-70
2023/01/22 00:02:39;;;;;;;49.67;25.77;;;-2.20;99.90;;;;;;4944910;28;20027;-71
2023/01/22 00:05:06;;;;;;;41.97;22.40;;;-2.30;99.90;;;;;;4949190;28;20057;-70
2023/01/22 00:07:33;;;;;;;39.40;21.50;;;-2.30;99.90;;;;;;4946740;28;20023;-70
2023/01/22 00:09:59;;;;;;;36.73;20.17;;;-2.30;99.90;;;;;;4940271;28;20039;-71
2023/01/22 00:12:26;;;;;;;44.83;23.57;;;-2.30;99.90;;;;;;4938577;28;20521;-71
2023/01/22 00:14:53;;;;;;;44.77;21.83;;;-2.20;99.90;;;;;;4944928;28;20054;-70
2023/01/22 00:17:19;;;;;;;43.00;23.53;;;-2.20;99.90;;;;;;4932312;28;20043;-71
2023/01/22 00:19:45;;;;;;;35.47;20.10;;;-2.20;99.90;;;;;;4920935;28;20469;-71
2023/01/22 00:22:11;;;;;;;36.73;20.10;;;-2.20;99.90;;;;;;4925318;28;20859;-70
2023/01/22 00:24:41;;;;;;;40.00;20.00;;;-2.20;99.90;;;;;;4913081;28;20046;-71
2023/01/22 00:27:07;;;;;;;38.73;20.87;;;-2.20;99.90;;;;;;4933440;28;20035;-70
2023/01/22 00:29:33;;;;;;;34.07;19.60;;;-2.10;99.90;;;;;;4930723;28;20035;-70
2023/01/22 00:32:00;;;;;;;37.87;20.40;;;-2.10;99.90;;;;;;4911485;28;20042;-71
2023/01/22 00:34:26;;;;;;;36.60;20.30;;;-2.20;99.90;;;;;;4911338;28;20035;-70
2023/01/22 00:36:53;;;;;;;40.60;21.27;;;-2.10;99.90;;;;;;4915616;28;20459;-71
2023/01/22 00:39:19;;;;;;;36.60;20.33;;;-2.10;99.90;;;;;;4949008;28;20422;-71
2023/01/22 00:41:45;;;;;;;35.03;20.17;;;-2.10;99.90;;;;;;4929698;28;20047;-71
2023/01/22 00:44:12;;;;;;;37.47;21.23;;;-2.10;99.90;;;;;;4943287;28;20027;-70
2023/01/22 00:46:38;;;;;;;40.80;22.23;;;-2.10;99.90;;;;;;4930883;28;20038;-71
2023/01/22 00:49:04;;;;;;;35.50;20.53;;;-2.10;99.90;;;;;;4947477;28;20039;-70
2023/01/22 00:51:32;;;;;;;30.73;18.10;;;-2.10;99.90;;;;;;4925470;28;21052;-70
2023/01/22 00:53:59;;;;;;;28.67;16.93;;;-2.10;99.90;;;;;;4926711;28;20043;-70
2023/01/22 00:56:27;;;;;;;28.40;15.57;;;-2.10;99.90;;;;;;4934216;28;20051;-70
2023/01/22 00:58:53;;;;;;;23.73;14.50;;;-2.10;99.90;;;;;;4934356;28;20047;-70
2023/01/22 01:01:19;;;;;;;35.83;18.77;;;-2.10;99.90;;;;;;4945967;28;20038;-71
2023/01/22 01:03:46;;;;;;;43.77;25.60;;;-2.00;99.90;;;;;;4929086;28;20036;-70
2023/01/22 01:06:15;;;;;;;40.97;22.00;;;-2.00;99.90;;;;;;4918916;28;20057;-70
2023/01/22 01:08:43;;;;;;;44.43;22.97;;;-1.90;99.90;;;;;;4947824;28;20483;-70
2023/01/22 01:11:14;;;;;;;48.23;27.50;;;-1.80;99.90;;;;;;4911189;28;20039;-70
2023/01/22 01:13:42;;;;;;;46.30;25.27;;;-1.70;99.90;;;;;;4898103;28;20039;-70
2023/01/22 01:16:20;;;;;;;46.20;25.47;;;-1.60;99.90;;;;;;4910224;28;20453;-70
2023/01/22 01:18:47;;;;;;;40.93;22.57;;;-1.50;99.90;;;;;;4936542;28;20779;-71
2023/01/22 01:21:14;;;;;;;39.50;23.00;;;-1.50;99.90;;;;;;4907713;28;20039;-71
2023/01/22 01:23:41;;;;;;;36.90;22.03;;;-1.40;99.90;;;;;;4926242;28;20488;-70
2023/01/22 01:26:10;;;;;;;48.93;28.40;;;-1.30;99.90;;;;;;4918562;28;20536;-71
2023/01/22 01:28:39;;;;;;;44.23;25.03;;;-1.20;99.90;;;;;;4908676;28;20085;-71
2023/01/22 01:31:07;;;;;;;47.63;28.17;;;-1.10;99.90;;;;;;4945873;28;20518;-71
2023/01/22 01:33:34;;;;;;;44.43;26.17;;;-1.10;99.90;;;;;;4926418;28;20738;-71
2023/01/22 01:36:06;;;;;;;38.03;23.47;;;-1.00;99.90;;;;;;4948301;28;20046;-72
2023/01/22 01:38:33;;;;;;;46.35;27.23;;;-0.90;99.90;;;;;;4914922;28;20042;-71
2023/01/22 01:40:59;;;;;;;41.57;25.23;;;-0.90;99.90;;;;;;4948530;28;20039;-71
2023/01/22 01:43:27;;;;;;;39.20;21.93;;;-0.80;99.90;;;;;;4922931;28;20546;-71
2023/01/22 01:45:58;;;;;;;40.17;23.10;;;-0.80;99.90;;;;;;4932955;28;20050;-71
2023/01/22 01:48:42;;;;;;;40.40;22.33;;;-0.80;99.90;;;;;;4920598;28;20047;-71
2023/01/22 01:51:16;;;;;;;39.67;24.70;;;-0.70;99.90;;;;;;4933894;28;20051;-71
2023/01/22 01:53:45;;;;;;;41.07;24.67;;;-0.70;99.90;;;;;;4946542;28;20031;-72
2023/01/22 01:56:15;;;;;;;41.83;24.30;;;-0.70;99.90;;;;;;4936632;28;20042;-71
2023/01/22 01:58:43;;;;;;;36.33;21.80;;;-0.60;99.90;;;;;;4933552;28;20050;-71
2023/01/22 02:01:13;;;;;;;33.37;21.13;;;-0.60;99.90;;;;;;4934809;28;20046;-71
2023/01/22 02:03:39;;;;;;;33.60;19.97;;;-0.60;99.90;;;;;;4898130;28;20043;-71
2023/01/22 02:06:15;;;;;;;33.83;20.13;;;-0.70;99.90;;;;;;4930175;28;20058;-71
2023/01/22 02:08:47;;;;;;;48.87;27.00;;;-0.70;99.90;;;;;;4933647;28;20050;-71
2023/01/22 02:11:15;;;;;;;39.73;24.20;;;-0.70;99.90;;;;;;4931509;28;20047;-71
2023/01/22 02:13:47;;;;;;;39.97;21.60;;;-0.70;99.90;;;;;;4945402;28;20422;-71
2023/01/22 02:16:13;;;;;;;35.78;22.08;;;-0.70;99.90;;;;;;4927310;28;20054;-71
2023/01/22 02:18:40;;;;;;;42.60;24.77;;;-0.70;99.90;;;;;;4919102;28;20046;-71
2023/01/22 02:21:57;;;;;;;46.23;27.03;;;-0.70;99.90;;;;;;4918733;28;20046;-71
2023/01/22 02:24:29;;;;;;;39.63;23.53;;;-0.70;99.90;;;;;;4924028;28;20471;-71
2023/01/22 02:26:55;;;;;;;43.17;24.43;;;-0.70;99.90;;;;;;4920257;28;20045;-71
2023/01/22 02:29:21;;;;;;;36.47;21.20;;;-0.60;99.90;;;;;;4938206;28;20043;-71
2023/01/22 02:31:48;;;;;;;38.17;23.60;;;-0.60;99.90;;;;;;4915198;28;20446;-71
2023/01/22 02:34:14;;;;;;;38.37;22.67;;;-0.60;99.90;;;;;;4930717;28;20031;-71
2023/01/22 02:36:44;;;;;;;38.60;23.13;;;-0.60;99.90;;;;;;4935878;28;20035;-71
2023/01/22 02:39:10;;;;;;;40.00;22.53;;;-0.60;99.90;;;;;;4945929;28;20035;-71
2023/01/22 02:41:37;;;;;;;31.33;19.83;;;-0.70;99.90;;;;;;4926720;28;20046;-71
2023/01/22 02:44:06;;;;;;;45.00;26.40;;;-0.70;99.90;;;;;;4932754;28;20046;-71
2023/01/22 02:46:33;;;;;;;39.57;23.43;;;-0.70;99.90;;;;;;4950448;28;20033;-71
2023/01/22 02:49:00;;;;;;;38.70;23.77;;;-0.70;99.90;;;;;;4935074;28;20050;-71
2023/01/22 02:51:26;;;;;;;40.10;24.97;;;-0.70;99.90;;;;;;4939903;28;20039;-71
2023/01/22 02:53:53;;;;;;;39.50;23.57;;;-0.80;99.90;;;;;;4932788;28;20039;-71
2023/01/22 02:56:21;;;;;;;40.93;23.10;;;-0.80;99.90;;;;;;4934970;28;20027;-71
2023/01/22 02:58:47;;;;;;;37.27;21.43;;;-0.80;99.90;;;;;;4928693;28;20371;-71
2023/01/22 03:01:20;;;;;;;35.63;21.00;;;-0.90;99.90;;;;;;4937265;28;20039;-71
2023/01/22 03:04:10;;;;;;;30.40;18.80;;;-0.90;99.90;;;;;;4931060;28;20483;-71
2023/01/22 03:06:41;;;;;;;35.60;20.97;;;-0.90;99.90;;;;;;4927802;28;20043;-71
2023/01/22 03:09:10;;;;;;;38.88;22.45;;;-0.90;99.90;;;;;;4940506;28;20050;-71
2023/01/22 03:11:38;;;;;;;43.87;26.37;;;-0.90;99.90;;;;;;4914279;28;20513;-71
2023/01/22 03:22:26;;;;;;;41.00;23.80;;;-0.90;99.90;;;;;;4948757;28;20050;-72
2023/01/22 03:24:52;;;;;;;46.40;25.80;;;-0.90;99.90;;;;;;4937261;28;20035;-71
2023/01/22 03:27:24;;;;;;;43.93;23.57;;;-0.90;99.90;;;;;;4933178;28;20501;-71
2023/01/22 03:29:50;;;;;;;42.03;24.53;;;-0.90;99.90;;;;;;4900150;28;20047;-71
2023/01/22 03:32:19;;;;;;;43.83;23.00;;;-0.80;99.90;;;;;;4929850;28;20049;-72
2023/01/22 03:34:45;;;;;;;42.83;23.90;;;-0.80;99.90;;;;;;4930728;28;20043;-71
2023/01/22 03:37:12;;;;;;;46.93;25.20;;;-0.70;99.90;;;;;;4940465;28;20490;-71
2023/01/22 03:39:40;;;;;;;42.67;26.00;;;-0.80;99.90;;;;;;4926503;28;20035;-71
2023/01/22 03:42:07;;;;;;;43.67;24.37;;;-0.70;99.90;;;;;;4932321;28;20252;-71
2023/01/22 03:44:34;;;;;;;42.87;24.90;;;-0.70;99.90;;;;;;4929466;28;20043;-71
2023/01/22 03:47:01;;;;;;;41.73;23.57;;;-0.70;99.90;;;;;;4935294;28;20042;-71
2023/01/22 03:49:27;;;;;;;40.03;25.00;;;-0.70;99.90;;;;;;4930060;28;20043;-71
2023/01/22 03:51:55;;;;;;;40.70;25.70;;;-0.70;99.90;;;;;;4920903;28;20027;-72
2023/01/22 03:54:23;;;;;;;34.50;21.83;;;-0.60;99.90;;;;;;4930490;28;20818;-71
2023/01/22 03:56:50;;;;;;;39.23;23.73;;;-0.60;99.90;;;;;;4932346;28;20047;-71
2023/01/22 03:59:23;;;;;;;40.00;22.97;;;-0.60;99.90;;;;;;4941832;28;20027;-71
2023/01/22 04:01:51;;;;;;;36.23;20.87;;;-0.50;99.90;;;;;;4934521;28;20039;-72
2023/01/22 04:04:18;;;;;;;41.00;24.60;;;-0.50;99.90;;;;;;4940876;28;20047;-72
2023/01/22 04:06:45;;;;;;;38.77;24.23;;;-0.50;99.90;;;;;;4936322;28;20051;-72
2023/01/22 04:09:13;;;;;;;42.60;26.00;;;-0.40;99.90;;;;;;4919334;28;20036;-72
2023/01/22 04:11:45;;;;;;;39.67;21.43;;;-0.40;99.90;;;;;;4912939;28;20062;-71
2023/01/22 04:14:13;;;;;;;43.40;26.03;;;-0.40;99.90;;;;;;4917804;28;20483;-72
2023/01/22 04:16:45;;;;;;;40.55;24.90;;;-0.40;99.90;;;;;;4944446;28;20050;-72
2023/01/22 04:19:34;;;;;;;41.33;25.37;;;-0.40;99.90;;;;;;4923482;28;20513;-72
2023/01/22 04:22:26;;;;;;;36.88;23.38;;;-0.40;99.90;;;;;;4930453;28;20054;-71
2023/01/22 04:24:55;;;;;;;35.37;21.50;;;-0.40;99.90;;;;;;4929909;28;20380;-72
2023/01/22 04:27:21;;;;;;;40.83;25.33;;;-0.30;99.90;;;;;;4903532;28;20039;-72
2023/01/22 04:29:50;;;;;;;42.17;24.97;;;-0.30;99.90;;;;;;4934619;28;20051;-71
2023/01/22 04:32:18;;;;;;;34.70;22.77;;;-0.30;99.90;;;;;;4929301;28;20407;-71
2023/01/22 04:35:04;;;;;;;41.27;23.83;;;-0.30;99.90;;;;;;4940946;28;20041;-71
2023/01/22 04:37:42;;;;;;;48.70;27.53;;;-0.30;99.90;;;;;;4935073;28;20370;-72
2023/01/22 04:40:09;;;;;;;41.23;24.77;;;-0.30;99.90;;;;;;4915902;28;20047;-71
2023/01/22 04:42:36;;;;;;;43.43;23.73;;;-0.30;99.90;;;;;;4912423;28;20101;-71
2023/01/22 04:45:04;;;;;;;39.80;22.37;;;-0.30;99.90;;;;;;4932495;28;20043;-71
2023/01/22 04:47:31;;;;;;;36.47;22.03;;;-0.20;99.90;;;;;;4928173;28;20042;-72
2023/01/22 04:49:58;;;;;;;41.63;25.77;;;-0.20;99.90;;;;;;4917562;28;20039;-72
2023/01/22 04:52:24;;;;;;;39.33;25.67;;;-0.20;99.90;;;;;;4917726;28;20046;-72
2023/01/22 04:54:52;;;;;;;39.57;23.97;;;-0.20;99.90;;;;;;4931450;28;20383;-72
2023/01/22 04:57:19;;;;;;;40.60;26.33;;;-0.20;99.90;;;;;;4944834;28;20036;-71
2023/01/22 04:59:46;;;;;;;35.43;21.93;;;-0.10;99.90;;;;;;4936648;28;20034;-72
2023/01/22 05:02:13;;;;;;;39.63;24.73;;;-0.20;99.90;;;;;;4939901;28;20475;-72
2023/01/22 05:04:41;;;;;;;35.43;23.37;;;-0.10;99.90;;;;;;4928448;28;20507;-72
2023/01/22 05:07:08;;;;;;;36.27;23.70;;;-0.10;99.90;;;;;;4944644;28;20042;-71
2023/01/22 05:09:34;;;;;;;38.37;23.03;;;-0.10;99.90;;;;;;4955997;28;20260;-72
2023/01/22 05:12:01;;;;;;;39.50;23.43;;;-0.10;99.90;;;;;;4939982;28;20045;-72
2023/01/22 05:14:32;;;;;;;40.63;23.47;;;-0.10;99.90;;;;;;4940275;28;20362;-72
2023/01/22 05:17:00;;;;;;;41.00;25.57;;;-0.10;99.90;;;;;;4917178;28;20449;-72
2023/01/22 05:19:26;;;;;;;39.20;23.93;;;0.00;99.90;;;;;;4932970;28;20469;-72
2023/01/22 05:21:52;;;;;;;41.47;24.93;;;0.00;99.90;;;;;;4917485;28;20034;-72
2023/01/22 05:24:19;;;;;;;36.07;23.43;;;-0.10;99.90;;;;;;4919605;28;20035;-72
2023/01/22 05:26:45;;;;;;;36.77;23.17;;;-0.10;99.90;;;;;;4940741;28;20459;-72
2023/01/22 05:29:24;;;;;;;40.50;25.37;;;0.00;99.90;;;;;;4938116;28;20121;-72
2023/01/22 05:32:01;;;;;;;32.93;20.97;;;0.00;99.90;;;;;;4947176;28;20039;-72
2023/01/22 05:34:31;;;;;;;33.57;22.57;;;0.00;99.90;;;;;;4943108;28;20039;-72
2023/01/22 05:36:58;;;;;;;29.53;20.00;;;0.00;99.90;;;;;;4932625;28;20486;-72
2023/01/22 05:39:27;;;;;;;34.60;22.83;;;0.00;99.90;;;;;;4935390;28;20038;-72
2023/01/22 05:41:56;;;;;;;34.90;22.47;;;0.10;99.90;;;;;;4916293;28;20043;-72
2023/01/22 05:44:22;;;;;;;37.03;25.50;;;0.00;99.90;;;;;;4943645;28;20043;-72
2023/01/22 05:46:52;;;;;;;33.80;24.37;;;0.00;99.90;;;;;;4949085;28;20560;-72
2023/01/22 05:49:32;;;;;;;34.63;21.83;;;0.00;99.90;;;;;;4947881;28;20027;-72
2023/01/22 05:51:59;;;;;;;33.70;20.93;;;0.00;99.90;;;;;;4943993;28;20027;-72
2023/01/22 05:54:25;;;;;;;31.67;22.33;;;0.00;99.90;;;;;;4935304;28;20035;-72
2023/01/22 05:56:54;;;;;;;36.67;23.13;;;0.00;99.90;;;;;;4937436;28;20031;-72
2023/01/22 05:59:20;;;;;;;36.50;21.97;;;0.00;99.90;;;;;;4922303;28;20725;-72
2023/01/22 06:01:55;;;;;;;34.00;21.77;;;-0.10;99.90;;;;;;4919460;28;20050;-72
2023/01/22 06:04:21;;;;;;;33.43;22.10;;;-0.10;99.90;;;;;;4936056;28;20039;-72
2023/01/22 06:06:48;;;;;;;32.67;21.63;;;0.00;99.90;;;;;;4932628;28;20037;-72
2023/01/22 06:09:16;;;;;;;30.07;21.13;;;0.00;99.90;;;;;;4946306;28;20039;-72
2023/01/22 06:11:43;;;;;;;29.40;21.17;;;-0.10;99.90;;;;;;4942989;28;20490;-72
2023/01/22 06:14:09;;;;;;;27.57;20.30;;;-0.10;99.90;;;;;;4919021;28;20042;-73
2023/01/22 06:16:35;;;;;;;31.13;22.93;;;-0.10;99.90;;;;;;4925192;28;20026;-72
2023/01/22 06:19:24;;;;;;;29.87;21.30;;;-0.10;99.90;;;;;;4946822;28;20051;-72
2023/01/22 06:21:53;;;;;;;33.63;21.63;;;-0.10;99.90;;;;;;4942696;28;20035;-72
2023/01/22 06:24:25;;;;;;;30.15;20.38;;;-0.20;99.90;;;;;;4941245;28;20053;-72
2023/01/22 06:26:51;;;;;;;31.73;21.57;;;-0.20;99.90;;;;;;4933596;28;20140;-72
2023/01/22 06:29:19;;;;;;;29.23;20.20;;;-0.10;99.90;;;;;;4909234;28;20061;-71
2023/01/22 06:31:47;;;;;;;29.90;20.30;;;-0.20;99.90;;;;;;4911881;28;20050;-72
2023/01/22 06:34:17;;;;;;;26.47;19.13;;;-0.20;99.90;;;;;;4927331;28;20034;-72
2023/01/22 06:36:43;;;;;;;25.87;18.53;;;-0.20;99.90;;;;;;4935416;28;20049;-72
2023/01/22 06:39:10;;;;;;;29.80;19.93;;;-0.30;99.90;;;;;;4932848;28;20042;-72
2023/01/22 06:41:42;;;;;;;28.05;19.88;;;-0.30;99.90;;;;;;4932579;28;20047;-72
2023/01/22 06:44:12;;;;;;;28.90;20.47;;;-0.30;99.90;;;;;;4933626;28;20038;-72
2023/01/22 06:46:38;;;;;;;28.87;19.10;;;-0.30;99.90;;;;;;4906472;28;20034;-72
2023/01/22 06:49:11;;;;;;;27.47;19.23;;;-0.40;99.90;;;;;;4929036;28;20043;-72
2023/01/22 06:51:40;;;;;;;29.33;17.77;;;-0.30;99.90;;;;;;4930333;28;20039;-72
2023/01/22 06:54:06;;;;;;;27.07;18.67;;;-0.30;99.90;;;;;;4917768;28;20046;-72
2023/01/22 06:56:33;;;;;;;28.43;19.17;;;-0.20;99.90;;;;;;4935705;28;20042;-72
2023/01/22 06:59:01;;;;;;;26.47;17.97;;;-0.20;99.90;;;;;;4930979;28;20406;-72
2023/01/22 07:01:27;;;;;;;24.27;18.50;;;-0.20;99.90;;;;;;4915638;28;20486;-72
2023/01/22 07:03:53;;;;;;;24.83;17.40;;;-0.20;99.90;;;;;;4916799;28;20035;-72
2023/01/22 07:06:19;;;;;;;25.20;16.70;;;-0.20;99.90;;;;;;4920397;28;20448;-72
2023/01/22 07:08:46;;;;;;;23.10;15.10;;;-0.10;99.90;;;;;;4955359;28;20043;-73
2023/01/22 07:11:14;;;;;;;22.83;17.00;;;-0.10;99.90;;;;;;4949847;28;20051;-72
2023/01/22 07:13:41;;;;;;;22.47;15.33;;;-0.10;99.90;;;;;;4940706;28;20509;-72
2023/01/22 07:16:08;;;;;;;23.20;15.40;;;-0.10;99.90;;;;;;4935828;28;20612;-72
2023/01/22 07:18:34;;;;;;;23.33;16.83;;;-0.20;99.90;;;;;;4912380;28;20038;-72
2023/01/22 07:21:02;;;;;;;23.13;15.30;;;-0.20;99.90;;;;;;4937862;28;20110;-72
2023/01/22 07:23:29;;;;;;;20.73;14.50;;;-0.30;99.90;;;;;;4926964;28;20401;-72
2023/01/22 07:25:56;;;;;;;23.70;16.57;;;-0.30;99.90;;;;;;4917902;28;20046;-72
2023/01/22 07:28:22;;;;;;;21.07;14.50;;;-0.30;99.90;;;;;;4951176;28;20039;-72
2023/01/22 07:30:49;;;;;;;22.73;14.70;;;-0.30;99.90;;;;;;4951461;28;20035;-72
2023/01/22 07:33:15;;;;;;;22.53;15.77;;;-0.30;99.90;;;;;;4910783;28;20133;-72
2023/01/22 07:35:42;;;;;;;21.67;14.40;;;-0.30;99.90;;;;;;4937080;28;20094;-72
2023/01/22 07:38:08;;;;;;;20.13;13.07;;;-0.40;99.90;;;;;;4919283;28;20035;-72
2023/01/22 07:40:34;;;;;;;26.07;15.97;;;-0.40;99.90;;;;;;4919090;28;20069;-72
2023/01/22 07:43:05;;;;;;;21.83;13.83;;;-0.40;99.90;;;;;;4948075;28;20031;-72
2023/01/22 07:45:34;;;;;;;21.48;15.68;;;-0.40;99.90;;;;;;4934391;28;20039;-72
2023/01/22 07:48:01;;;;;;;20.83;15.67;;;-0.40;99.90;;;;;;4953742;28;20054;-72
2023/01/22 07:50:30;;;;;;;24.60;15.30;;;-0.40;99.90;;;;;;4946353;28;20046;-72
2023/01/22 07:52:56;;;;;;;22.87;15.30;;;-0.40;99.90;;;;;;4947580;28;20447;-72
2023/01/22 07:55:22;;;;;;;25.80;17.50;;;-0.30;99.90;;;;;;4931179;28;20032;-72
2023/01/22 07:58:00;;;;;;;26.40;16.70;;;-0.40;99.90;;;;;;4951227;28;20039;-72
2023/01/22 08:00:27;;;;;;;27.20;17.00;;;-0.30;99.90;;;;;;4957212;28;20512;-72
2023/01/22 08:02:53;;;;;;;20.73;15.07;;;-0.30;99.90;;;;;;4920087;28;20042;-72
2023/01/22 08:05:20;;;;;;;26.57;17.53;;;-0.20;99.90;;;;;;4947127;28;20497;-72
2023/01/22 08:07:46;;;;;;;27.10;17.83;;;-0.10;99.90;;;;;;4945790;28;20042;-72
2023/01/22 08:10:14;;;;;;;23.83;16.93;;;-0.10;99.90;;;;;;4945401;28;20034;-72
2023/01/22 08:12:42;;;;;;;22.03;16.27;;;0.00;99.90;;;;;;4927671;28;20027;-72
2023/01/22 08:15:10;;;;;;;23.80;15.23;;;0.00;99.90;;;;;;4946463;28;20027;-73
2023/01/22 08:17:37;;;;;;;26.20;16.67;;;0.00;99.90;;;;;;4936825;28;20035;-72
2023/01/22 08:20:05;;;;;;;20.43;16.00;;;0.10;99.90;;;;;;4909599;28;20062;-72
2023/01/22 08:22:31;;;;;;;23.87;16.90;;;0.10;99.90;;;;;;4927794;28;20050;-72
2023/01/22 08:24:57;;;;;;;22.50;17.00;;;0.20;99.90;;;;;;4930129;28;20031;-73
2023/01/22 08:27:23;;;;;;;22.03;15.27;;;0.20;99.90;;;;;;4935665;28;20486;-72
2023/01/22 08:29:50;;;;;;;19.37;14.77;;;0.30;99.90;;;;;;4954700;28;20046;-72
2023/01/22 08:32:17;;;;;;;18.67;13.97;;;0.40;99.90;;;;;;4940971;28;20043;-73
2023/01/22 08:34:44;;;;;;;19.80;15.53;;;0.40;99.90;;;;;;4919091;28;20043;-72
2023/01/22 08:37:10;;;;;;;16.50;13.43;;;0.40;99.90;;;;;;4921682;28;20042;-73
2023/01/22 08:39:36;;;;;;;17.67;13.00;;;0.40;99.90;;;;;;4943014;28;20035;-73
2023/01/22 08:42:03;;;;;;;17.00;13.90;;;0.40;99.90;;;;;;4933803;28;20039;-73
2023/01/22 08:44:29;;;;;;;17.03;13.50;;;0.40;99.90;;;;;;4928991;28;20067;-72
2023/01/22 08:46:56;;;;;;;19.90;13.93;;;0.50;99.90;;;;;;4950373;28;20038;-72
2023/01/22 08:49:22;;;;;;;20.17;14.50;;;0.50;99.90;;;;;;4933047;28;20895;-72
2023/01/22 08:51:49;;;;;;;20.63;14.23;;;0.50;99.90;;;;;;4946465;28;20043;-73
2023/01/22 08:54:16;;;;;;;18.33;14.73;;;0.50;99.90;;;;;;4943950;28;20039;-73
2023/01/22 08:56:43;;;;;;;16.73;14.60;;;0.60;99.90;;;;;;4955529;28;20031;-73
2023/01/22 08:59:09;;;;;;;15.70;13.17;;;0.60;99.90;;;;;;4941316;28;20027;-72
2023/01/22 09:01:35;;;;;;;17.60;13.40;;;0.60;99.90;;;;;;4936979;28;20963;-72
2023/01/22 09:04:05;;;;;;;18.13;14.10;;;0.60;99.90;;;;;;4954087;28;20035;-72
2023/01/22 09:06:32;;;;;;;19.87;13.23;;;0.60;99.90;;;;;;4954987;28;20026;-72
2023/01/22 09:09:00;;;;;;;14.40;11.43;;;0.70;99.90;;;;;;4939237;28;20050;-72
2023/01/22 09:11:30;;;;;;;20.93;12.07;;;0.60;99.90;;;;;;4950226;28;20056;-72
2023/01/22 09:13:57;;;;;;;15.40;11.33;;;0.70;99.90;;;;;;4949618;28;20031;-72
2023/01/22 09:16:24;;;;;;;13.60;12.17;;;0.70;99.90;;;;;;4955474;28;20035;-72
2023/01/22 09:18:51;;;;;;;14.47;11.87;;;0.70;99.90;;;;;;4904629;28;20038;-72
2023/01/22 09:21:17;;;;;;;16.60;11.07;;;0.80;99.90;;;;;;4918158;28;21052;-72
2023/01/22 09:23:43;;;;;;;14.97;11.03;;;0.80;99.90;;;;;;4949793;28;20454;-72
2023/01/22 09:26:10;;;;;;;20.10;12.50;;;0.80;99.90;;;;;;4936734;28;20042;-73
2023/01/22 09:28:36;;;;;;;16.53;12.83;;;0.80;99.90;;;;;;4956449;28;20550;-72
2023/01/22 09:31:03;;;;;;;15.90;12.30;;;0.90;99.90;;;;;;4954003;28;20410;-72
2023/01/22 09:33:29;;;;;;;14.17;11.07;;;0.90;99.90;;;;;;4946477;28;20478;-72
2023/01/22 09:36:10;;;;;;;14.00;10.80;;;0.90;99.90;;;;;;4937395;28;20518;-72
2023/01/22 09:38:37;;;;;;;14.97;11.03;;;0.90;99.90;;;;;;4944895;28;20042;-72
2023/01/22 09:41:14;;;;;;;14.80;11.03;;;0.90;99.90;;;;;;4918995;28;20046;-72
2023/01/22 09:44:04;;;;;;;19.57;13.20;;;0.90;99.90;;;;;;4934243;28;20038;-72
2023/01/22 09:46:38;;;;;;;15.23;12.00;;;0.90;99.90;;;;;;4931884;28;20046;-72
2023/01/22 09:49:14;;;;;;;17.80;13.40;;;0.90;99.90;;;;;;4931903;28;20387;-72
2023/01/22 09:51:55;;;;;;;17.57;11.07;;;0.90;99.90;;;;;;4947528;28;20047;-72
2023/01/22 09:54:22;;;;;;;18.10;12.63;;;0.90;99.90;;;;;;4931890;28;20038;-72
2023/01/22 09:56:51;;;;;;;15.93;11.67;;;1.00;99.90;;;;;;4953149;28;20498;-72
2023/01/22 09:59:47;;;;;;;19.03;12.10;;;1.00;99.90;;;;;;4958479;28;20039;-72
2023/01/22 10:02:22;;;;;;;17.77;12.73;;;1.00;99.90;;;;;;4946293;28;20058;-72
2023/01/22 10:04:52;;;;;;;15.87;12.37;;;1.10;99.90;;;;;;4932298;28;20082;-71
2023/01/22 10:07:33;;;;;;;14.07;10.97;;;1.10;99.90;;;;;;4956632;28;20586;-71
2023/01/22 10:10:28;;;;;;;18.20;12.30;;;1.10;99.90;;;;;;4939109;28;20501;-72
2023/01/22 10:12:57;;;;;;;15.67;11.50;;;1.10;99.90;;;;;;4917684;28;20058;-71
2023/01/22 10:15:24;;;;;;;16.33;11.90;;;1.10;99.90;;;;;;4937190;28;20062;-71
2023/01/22 10:17:54;;;;;;;14.43;11.10;;;1.20;99.90;;;;;;4937350;28;20055;-72
2023/01/22 10:20:21;;;;;;;18.77;11.63;;;1.20;99.90;;;;;;4922271;28;20881;-72
2023/01/22 10:22:48;;;;;;;15.73;11.80;;;1.20;99.90;;;;;;4937616;28;20027;-72
2023/01/22 10:25:15;;;;;;;18.57;12.37;;;1.20;99.90;;;;;;4935705;28;20034;-71
2023/01/22 10:27:44;;;;;;;19.23;11.70;;;1.20;99.90;;;;;;4918965;28;20721;-71
2023/01/22 10:30:14;;;;;;;15.33;12.20;;;1.20;99.90;;;;;;4943423;28;20046;-71
2023/01/22 10:32:40;;;;;;;18.80;12.10;;;1.20;99.90;;;;;;4914835;28;20056;-72
2023/01/22 10:35:09;;;;;;;14.30;11.07;;;1.30;99.90;;;;;;4919489;28;20039;-71
2023/01/22 10:37:48;;;;;;;17.23;13.13;;;1.30;99.90;;;;;;4901266;28;20035;-71
2023/01/22 10:40:37;;;;;;;20.47;13.40;;;1.30;99.90;;;;;;4940113;28;20031;-71
2023/01/22 10:43:09;;;;;;;14.57;11.60;;;1.30;99.90;;;;;;4942788;28;20039;-71
2023/01/22 10:45:35;;;;;;;14.18;10.52;;;1.30;99.90;;;;;;4933788;28;20033;-71
2023/01/22 10:48:11;;;;;;;14.47;11.33;;;1.30;99.90;;;;;;4946702;28;20030;-71
2023/01/22 10:50:37;;;;;;;15.83;11.73;;;1.30;99.90;;;;;;4942707;28;20031;-71
2023/01/22 10:53:06;;;;;;;16.20;11.43;;;1.30;99.90;;;;;;4943908;28;20250;-72
2023/01/22 10:55:39;;;;;;;16.27;12.00;;;1.40;99.90;;;;;;4920872;28;20039;-72
2023/01/22 10:58:12;;;;;;;;;;;1.40;99.90;;;;;;4938376;28;20050;-72
2023/01/22 11:00:39;;;;;;;16.95;13.02;;;1.40;99.90;;;;;;4951738;28;20194;-72
2023/01/22 11:03:27;;;;;;;17.03;11.50;;;1.40;99.90;;;;;;4940161;28;20509;-72
2023/01/22 11:06:14;;;;;;;17.33;12.63;;;1.50;99.90;;;;;;4953457;28;20525;-73
2023/01/22 11:09:03;;;;;;;18.07;12.67;;;1.50;99.90;;;;;;4936270;28;20034;-72
2023/01/22 11:11:40;;;;;;;17.43;12.57;;;1.50;99.90;;;;;;4926285;28;20075;-73
2023/01/22 11:14:16;;;;;;;20.87;15.70;;;1.50;99.90;;;;;;4915450;28;20043;-73
2023/01/22 11:16:44;;;;;;;23.03;15.77;;;1.60;99.90;;;;;;4930957;28;20046;-74
2023/01/22 11:19:16;;;;;;;31.87;21.60;;;1.60;99.90;;;;;;4936871;28;20036;-74
2023/01/22 11:21:51;;;;;;;24.70;16.08;;;1.60;99.90;;;;;;4927721;28;20058;-75
2023/01/22 11:24:41;;;;;;;17.80;13.20;;;1.70;99.90;;;;;;4928007;28;20043;-73
2023/01/22 11:27:35;;;;;;;14.77;10.97;;;1.70;99.90;;;;;;4930385;28;20047;-72
2023/01/22 11:30:20;;;;;;;17.07;12.27;;;1.70;99.90;;;;;;4934673;28;20062;-72
2023/01/22 11:32:58;;;;;;;14.57;10.23;;;1.70;99.90;;;;;;4930677;28;20047;-72
2023/01/22 11:35:40;;;;;;;15.13;11.17;;;1.70;99.90;;;;;;4916823;28;20059;-73
2023/01/22 11:38:09;;;;;;;15.87;11.63;;;1.80;99.90;;;;;;4926362;28;20050;-73
2023/01/22 11:41:16;;;;;;;18.03;12.40;;;1.70;99.90;;;;;;4939251;28;20418;-72
2023/01/22 11:43:54;;;;;;;15.27;11.07;;;1.70;99.90;;;;;;4932741;28;20504;-72
2023/01/22 11:46:35;;;;;;;17.27;13.13;;;1.70;99.90;;;;;;4906188;28;20057;-72
2023/01/22 11:49:54;;;;;;;15.47;12.37;;;1.70;99.90;;;;;;4951346;28;20129;-71
2023/01/22 11:52:49;;;;;;;17.97;14.00;;;1.70;99.90;;;;;;4930245;28;20043;-72
2023/01/22 11:55:16;;;;;;;18.73;12.63;;;1.70;99.90;;;;;;4883808;29;20040;-72
2023/01/22 11:58:07;;;;;;;16.50;11.63;;;1.70;99.90;;;;;;4946948;28;20043;-72
2023/01/22 12:01:04;;;;;;;16.87;12.50;;;1.80;99.90;;;;;;4933186;28;20050;-72
2023/01/22 12:04:01;;;;;;;16.40;11.47;;;1.90;99.90;;;;;;4932350;28;20479;-72
2023/01/22 12:06:46;;;;;;;13.17;10.97;;;1.90;99.90;;;;;;4953004;28;20039;-72
2023/01/22 12:09:18;;;;;;;14.20;10.93;;;2.00;99.90;;;;;;4935053;28;20581;-73
2023/01/22 12:12:43;;;;;;;14.52;11.32;;;2.10;99.90;;;;;;4929682;28;20055;-71
2023/01/22 12:15:21;;;;;;;16.00;12.17;;;2.10;99.90;;;;;;4905456;29;20431;-72
2023/01/22 12:17:55;;;;;;;15.20;11.27;;;2.10;99.90;;;;;;4949996;28;20051;-72
2023/01/22 12:20:40;;;;;;;17.07;11.30;;;2.20;99.90;;;;;;4937377;28;20035;-71
2023/01/22 12:23:26;;;;;;;16.07;12.97;;;2.30;99.90;;;;;;4943521;28;20390;-72
2023/01/22 12:26:03;;;;;;;16.50;12.00;;;2.30;99.90;;;;;;4924444;28;20079;-71
2023/01/22 12:28:48;;;;;;;16.63;12.00;;;2.40;99.90;;;;;;4902875;28;20034;-72
2023/01/22 12:31:29;;;;;;;18.73;12.30;;;2.40;99.90;;;;;;4935575;28;20053;-71
2023/01/22 12:34:02;;;;;;;17.90;12.47;;;2.50;99.90;;;;;;4930862;28;20043;-71
2023/01/22 12:36:29;;;;;;;18.98;13.18;;;2.40;99.90;;;;;;4921631;28;20046;-72
2023/01/22 12:39:32;;;;;;;14.93;11.30;;;2.40;99.90;;;;;;4933149;28;20035;-71
2023/01/22 12:41:58;;;;;;;21.90;13.60;;;2.40;99.90;;;;;;4925549;28;20036;-71
2023/01/22 12:44:58;;;;;;;19.27;13.60;;;2.40;99.90;;;;;;4931086;28;20039;-70
2023/01/22 12:47:30;;;;;;;20.90;13.73;;;2.40;99.90;;;;;;4913860;28;20046;-72
2023/01/22 12:49:56;;;;;;;20.25;15.07;;;2.40;99.90;;;;;;4935259;28;20553;-73
2023/01/22 12:52:33;;;;;;;17.73;12.23;;;2.40;99.90;;;;;;4927611;28;20047;-75
2023/01/22 12:55:01;;;;;;;16.90;13.60;;;2.40;99.90;;;;;;4920941;28;20046;-71
2023/01/22 12:57:40;;;;;;;15.43;11.50;;;2.40;99.90;;;;;;4930520;28;20027;-72